sensor_id;sensor_type;location;lat;lon;timestamp;temperature;humidity
64499;SHT31;51087;55.718;21.122;2022-12-16T00:01:44;-4.95;99.99
64499;SHT31;51087;55.718;21.122;2022-12-16T00:04:09;-4.97;99.99
64499;SHT31;51087;55.718;21.122;2022-12-16T00:06:34;-4.97;99.99
64499;SHT31;51087;55.718;21.122;2022-12-16T00:09:00;-4.93;99.99
64499;SHT31;51087;55.718;21.122;2022-12-16T00:11:26;-4.93;99.99
64499;SHT31;51087;55.718;21.122;2022-12-16T00:13:52;-4.93;99.99
64499;SHT31;51087;55.718;21.122;2022-12-16T00:16:19;-4.95;99.99
64499;SHT31;51087;55.718;21.122;2022-12-16T00:18:45;-4.92;99.99
64499;SHT31;51087;55.718;21.122;2022-12-16T00:21:11;-4.95;99.99
64499;SHT31;51087;55.718;21.122;2022-12-16T00:23:38;-5.00;99.99
64499;SHT31;51087;55.718;21.122;2022-12-16T00:26:06;-5.04;99.99
64499;SHT31;51087;55.718;21.122;2022-12-16T00:28:31;-5.00;99.99
64499;SHT31;51087;55.718;21.122;2022-12-16T00:30:57;-4.97;99.99
64499;SHT31;51087;55.718;21.122;2022-12-16T00:33:24;-4.95;99.99
64499;SHT31;51087;55.718;21.122;2022-12-16T00:35:51;-4.92;99.99
64499;SHT31;51087;55.718;21.122;2022-12-16T00:38:17;-4.99;99.99
64499;SHT31;51087;55.718;21.122;2022-12-16T00:40:43;-5.02;99.99
64499;SHT31;51087;55.718;21.122;2022-12-16T00:43:08;-5.03;99.99
64499;SHT31;51087;55.718;21.122;2022-12-16T00:45:34;-5.02;99.99
64499;SHT31;51087;55.718;21.122;2022-12-16T00:47:59;-5.06;99.99
64499;SHT31;51087;55.718;21.122;2022-12-16T00:50:25;-5.06;99.99
64499;SHT31;51087;55.718;21.122;2022-12-16T00:52:51;-5.03;99.99
64499;SHT31;51087;55.718;21.122;2022-12-16T00:55:17;-5.03;99.99
64499;SHT31;51087;55.718;21.122;2022-12-16T00:57:43;-5.00;99.99
64499;SHT31;51087;55.718;21.122;2022-12-16T01:00:11;-4.95;99.99
64499;SHT31;51087;55.718;21.122;2022-12-16T01:02:41;-4.92;99.99
64499;SHT31;51087;55.718;21.122;2022-12-16T01:05:09;-4.95;99.99
64499;SHT31;51087;55.718;21.122;2022-12-16T01:07:35;-4.83;99.99
64499;SHT31;51087;55.718;21.122;2022-12-16T01:10:01;-4.76;99.99
64499;SHT31;51087;55.718;21.122;2022-12-16T01:12:27;-4.69;99.99
64499;SHT31;51087;55.718;21.122;2022-12-16T01:14:52;-4.62;99.99
64499;SHT31;51087;55.718;21.122;2022-12-16T01:17:18;-4.60;99.99
64499;SHT31;51087;55.718;21.122;2022-12-16T01:19:43;-4.58;99.99
64499;SHT31;51087;55.718;21.122;2022-12-16T01:22:10;-4.57;99.99
64499;SHT31;51087;55.718;21.122;2022-12-16T01:24:35;-4.54;99.99
64499;SHT31;51087;55.718;21.122;2022-12-16T01:27:00;-4.54;99.99
64499;SHT31;51087;55.718;21.122;2022-12-16T01:29:26;-4.44;99.99
64499;SHT31;51087;55.718;21.122;2022-12-16T01:31:51;-4.41;99.99
64499;SHT31;51087;55.718;21.122;2022-12-16T01:34:17;-4.46;99.99
64499;SHT31;51087;55.718;21.122;2022-12-16T01:36:42;-4.46;99.99
64499;SHT31;51087;55.718;21.122;2022-12-16T01:39:09;-4.54;99.99
64499;SHT31;51087;55.718;21.122;2022-12-16T01:41:35;-4.48;99.99
64499;SHT31;51087;55.718;21.122;2022-12-16T01:44:15;-4.46;99.99
64499;SHT31;51087;55.718;21.122;2022-12-16T01:46:44;-4.37;99.99
64499;SHT31;51087;55.718;21.122;2022-12-16T01:51:48;-4.34;99.99
64499;SHT31;51087;55.718;21.122;2022-12-16T01:54:18;-4.26;99.99
64499;SHT31;51087;55.718;21.122;2022-12-16T01:56:56;-4.23;99.99
64499;SHT31;51087;55.718;21.122;2022-12-16T01:59:23;-4.21;99.99
64499;SHT31;51087;55.718;21.122;2022-12-16T02:01:49;-4.24;99.99
64499;SHT31;51087;55.718;21.122;2022-12-16T02:04:15;-4.21;99.99
64499;SHT31;51087;55.718;21.122;2022-12-16T02:06:40;-4.21;99.99
64499;SHT31;51087;55.718;21.122;2022-12-16T02:09:08;-4.14;99.99
64499;SHT31;51087;55.718;21.122;2022-12-16T02:11:55;-4.16;99.99
64499;SHT31;51087;55.718;21.122;2022-12-16T02:14:38;-4.11;99.99
64499;SHT31;51087;55.718;21.122;2022-12-16T02:17:46;-4.10;99.99
64499;SHT31;51087;55.718;21.122;2022-12-16T02:29:58;-3.99;99.99
64499;SHT31;51087;55.718;21.122;2022-12-16T02:32:39;-3.93;99.99
64499;SHT31;51087;55.718;21.122;2022-12-16T02:35:53;-3.93;99.99
64499;SHT31;51087;55.718;21.122;2022-12-16T02:41:00;-3.88;99.99
64499;SHT31;51087;55.718;21.122;2022-12-16T02:45:55;-3.79;99.99
64499;SHT31;51087;55.718;21.122;2022-12-16T02:48:20;-3.72;99.99
64499;SHT31;51087;55.718;21.122;2022-12-16T02:50:50;-3.65;99.99
64499;SHT31;51087;55.718;21.122;2022-12-16T02:53:17;-3.68;99.99
64499;SHT31;51087;55.718;21.122;2022-12-16T03:06:19;-3.58;99.99
64499;SHT31;51087;55.718;21.122;2022-12-16T03:08:50;-3.55;99.99
64499;SHT31;51087;55.718;21.122;2022-12-16T03:11:19;-3.55;99.99
64499;SHT31;51087;55.718;21.122;2022-12-16T03:13:47;-3.58;99.99
64499;SHT31;51087;55.718;21.122;2022-12-16T03:16:16;-3.60;99.99
64499;SHT31;51087;55.718;21.122;2022-12-16T03:18:47;-3.64;99.99
64499;SHT31;51087;55.718;21.122;2022-12-16T03:21:14;-3.60;99.99
64499;SHT31;51087;55.718;21.122;2022-12-16T03:23:52;-3.50;99.99
64499;SHT31;51087;55.718;21.122;2022-12-16T03:26:27;-3.41;99.99
64499;SHT31;51087;55.718;21.122;2022-12-16T03:29:14;-3.36;99.99
64499;SHT31;51087;55.718;21.122;2022-12-16T03:36:53;-3.23;99.99
64499;SHT31;51087;55.718;21.122;2022-12-16T03:39:21;-3.26;99.99
64499;SHT31;51087;55.718;21.122;2022-12-16T03:41:49;-3.20;99.99
64499;SHT31;51087;55.718;21.122;2022-12-16T03:44:17;-3.16;99.99
64499;SHT31;51087;55.718;21.122;2022-12-16T03:46:42;-2.99;99.99
64499;SHT31;51087;55.718;21.122;2022-12-16T03:49:08;-2.91;99.99
64499;SHT31;51087;55.718;21.122;2022-12-16T03:51:33;-2.86;99.99
64499;SHT31;51087;55.718;21.122;2022-12-16T03:53:59;-2.84;99.99
64499;SHT31;51087;55.718;21.122;2022-12-16T03:56:24;-2.82;99.99
64499;SHT31;51087;55.718;21.122;2022-12-16T03:58:50;-2.82;99.99
64499;SHT31;51087;55.718;21.122;2022-12-16T04:01:15;-2.85;99.99
64499;SHT31;51087;55.718;21.122;2022-12-16T04:03:40;-2.78;99.99
64499;SHT31;51087;55.718;21.122;2022-12-16T04:06:06;-2.74;99.99
64499;SHT31;51087;55.718;21.122;2022-12-16T04:08:32;-2.72;99.99
64499;SHT31;51087;55.718;21.122;2022-12-16T04:10:57;-2.76;99.99
64499;SHT31;51087;55.718;21.122;2022-12-16T04:13:41;-2.76;99.99
64499;SHT31;51087;55.718;21.122;2022-12-16T04:16:39;-2.85;99.99
64499;SHT31;51087;55.718;21.122;2022-12-16T04:19:28;-2.82;99.99
64499;SHT31;51087;55.718;21.122;2022-12-16T04:22:21;-2.89;99.99
64499;SHT31;51087;55.718;21.122;2022-12-16T04:25:11;-2.81;99.99
64499;SHT31;51087;55.718;21.122;2022-12-16T04:27:38;-2.71;99.99
64499;SHT31;51087;55.718;21.122;2022-12-16T04:30:04;-2.61;99.99
64499;SHT31;51087;55.718;21.122;2022-12-16T04:32:46;-2.74;99.99
64499;SHT31;51087;55.718;21.122;2022-12-16T04:35:31;-2.69;99.99
64499;SHT31;51087;55.718;21.122;2022-12-16T04:38:15;-2.62;99.99
64499;SHT31;51087;55.718;21.122;2022-12-16T04:40:59;-2.54;99.99
64499;SHT31;51087;55.718;21.122;2022-12-16T04:43:43;-2.57;99.99
64499;SHT31;51087;55.718;21.122;2022-12-16T04:46:27;-2.65;99.99
64499;SHT31;51087;55.718;21.122;2022-12-16T04:49:11;-2.76;99.99
64499;SHT31;51087;55.718;21.122;2022-12-16T04:51:55;-2.74;99.99
64499;SHT31;51087;55.718;21.122;2022-12-16T04:54:39;-2.67;99.99
64499;SHT31;51087;55.718;21.122;2022-12-16T04:57:23;-2.57;99.99
64499;SHT31;51087;55.718;21.122;2022-12-16T05:00:07;-2.53;99.99
64499;SHT31;51087;55.718;21.122;2022-12-16T05:02:51;-2.79;99.99
64499;SHT31;51087;55.718;21.122;2022-12-16T05:05:55;-2.95;99.99
64499;SHT31;51087;55.718;21.122;2022-12-16T05:08:39;-2.99;99.99
64499;SHT31;51087;55.718;21.122;2022-12-16T05:11:23;-2.99;99.99
64499;SHT31;51087;55.718;21.122;2022-12-16T05:14:07;-3.02;99.99
64499;SHT31;51087;55.718;21.122;2022-12-16T05:16:51;-3.05;99.99
64499;SHT31;51087;55.718;21.122;2022-12-16T05:19:51;-3.05;99.99
64499;SHT31;51087;55.718;21.122;2022-12-16T05:22:35;-3.10;99.99
64499;SHT31;51087;55.718;21.122;2022-12-16T05:25:19;-3.14;99.99
64499;SHT31;51087;55.718;21.122;2022-12-16T05:28:04;-3.13;99.99
64499;SHT31;51087;55.718;21.122;2022-12-16T05:30:48;-3.12;99.99
64499;SHT31;51087;55.718;21.122;2022-12-16T05:33:31;-3.13;99.99
64499;SHT31;51087;55.718;21.122;2022-12-16T05:36:15;-3.19;99.99
64499;SHT31;51087;55.718;21.122;2022-12-16T05:38:59;-3.20;99.99
64499;SHT31;51087;55.718;21.122;2022-12-16T05:41:43;-3.19;99.99
64499;SHT31;51087;55.718;21.122;2022-12-16T05:44:27;-3.21;99.99
64499;SHT31;51087;55.718;21.122;2022-12-16T05:47:11;-3.19;99.99
64499;SHT31;51087;55.718;21.122;2022-12-16T05:49:55;-3.24;99.99
64499;SHT31;51087;55.718;21.122;2022-12-16T05:52:40;-3.23;99.99
64499;SHT31;51087;55.718;21.122;2022-12-16T05:55:23;-3.24;99.99
64499;SHT31;51087;55.718;21.122;2022-12-16T05:58:08;-3.24;99.99
64499;SHT31;51087;55.718;21.122;2022-12-16T06:00:52;-3.27;99.99
64499;SHT31;51087;55.718;21.122;2022-12-16T06:03:40;-3.26;99.99
64499;SHT31;51087;55.718;21.122;2022-12-16T06:06:24;-3.26;99.99
64499;SHT31;51087;55.718;21.122;2022-12-16T06:09:08;-3.21;99.99
64499;SHT31;51087;55.718;21.122;2022-12-16T06:11:52;-3.21;99.99
64499;SHT31;51087;55.718;21.122;2022-12-16T06:14:36;-3.20;99.99
64499;SHT31;51087;55.718;21.122;2022-12-16T06:17:20;-3.20;99.99
64499;SHT31;51087;55.718;21.122;2022-12-16T06:20:05;-3.23;99.99
64499;SHT31;51087;55.718;21.122;2022-12-16T06:22:52;-3.26;99.99
64499;SHT31;51087;55.718;21.122;2022-12-16T06:25:37;-3.26;99.99
64499;SHT31;51087;55.718;21.122;2022-12-16T06:28:21;-3.23;99.99
64499;SHT31;51087;55.718;21.122;2022-12-16T06:31:05;-3.24;99.99
64499;SHT31;51087;55.718;21.122;2022-12-16T06:33:49;-3.26;99.99
64499;SHT31;51087;55.718;21.122;2022-12-16T06:36:34;-3.24;99.99
64499;SHT31;51087;55.718;21.122;2022-12-16T06:39:18;-3.23;99.99
64499;SHT31;51087;55.718;21.122;2022-12-16T06:42:02;-3.23;99.99
64499;SHT31;51087;55.718;21.122;2022-12-16T06:44:45;-3.23;99.99
64499;SHT31;51087;55.718;21.122;2022-12-16T06:47:30;-3.24;99.99
64499;SHT31;51087;55.718;21.122;2022-12-16T06:50:14;-3.24;99.99
64499;SHT31;51087;55.718;21.122;2022-12-16T06:52:57;-3.32;99.99
64499;SHT31;51087;55.718;21.122;2022-12-16T06:55:44;-3.30;99.99
64499;SHT31;51087;55.718;21.122;2022-12-16T06:58:29;-3.26;99.99
64499;SHT31;51087;55.718;21.122;2022-12-16T07:01:12;-3.27;99.99
64499;SHT31;51087;55.718;21.122;2022-12-16T07:03:56;-3.26;99.99
64499;SHT31;51087;55.718;21.122;2022-12-16T07:06:40;-3.27;99.99
64499;SHT31;51087;55.718;21.122;2022-12-16T07:09:24;-3.27;99.99
64499;SHT31;51087;55.718;21.122;2022-12-16T07:12:08;-3.27;99.99
64499;SHT31;51087;55.718;21.122;2022-12-16T07:14:52;-3.27;99.99
64499;SHT31;51087;55.718;21.122;2022-12-16T07:17:38;-3.26;99.99
64499;SHT31;51087;55.718;21.122;2022-12-16T07:20:22;-3.24;99.99
64499;SHT31;51087;55.718;21.122;2022-12-16T07:23:06;-3.23;99.99
64499;SHT31;51087;55.718;21.122;2022-12-16T07:25:50;-3.20;99.99
64499;SHT31;51087;55.718;21.122;2022-12-16T07:28:34;-3.19;99.99
64499;SHT31;51087;55.718;21.122;2022-12-16T07:31:18;-3.19;99.99
64499;SHT31;51087;55.718;21.122;2022-12-16T07:34:02;-3.17;99.99
64499;SHT31;51087;55.718;21.122;2022-12-16T07:36:46;-3.17;99.99
64499;SHT31;51087;55.718;21.122;2022-12-16T07:39:30;-3.17;99.99
64499;SHT31;51087;55.718;21.122;2022-12-16T07:42:14;-3.16;99.99
64499;SHT31;51087;55.718;21.122;2022-12-16T07:44:58;-3.14;99.99
64499;SHT31;51087;55.718;21.122;2022-12-16T07:47:45;-3.14;99.99
64499;SHT31;51087;55.718;21.122;2022-12-16T07:50:29;-3.13;99.99
64499;SHT31;51087;55.718;21.122;2022-12-16T07:53:13;-3.14;99.99
64499;SHT31;51087;55.718;21.122;2022-12-16T07:55:57;-3.13;99.99
64499;SHT31;51087;55.718;21.122;2022-12-16T07:58:41;-3.14;99.99
64499;SHT31;51087;55.718;21.122;2022-12-16T08:01:25;-3.14;99.99
64499;SHT31;51087;55.718;21.122;2022-12-16T08:04:09;-3.17;99.99
64499;SHT31;51087;55.718;21.122;2022-12-16T08:06:59;-3.19;99.99
64499;SHT31;51087;55.718;21.122;2022-12-16T08:09:43;-3.21;99.99
64499;SHT31;51087;55.718;21.122;2022-12-16T08:12:27;-3.26;99.99
64499;SHT31;51087;55.718;21.122;2022-12-16T08:15:11;-3.26;99.99
64499;SHT31;51087;55.718;21.122;2022-12-16T08:17:55;-3.24;99.99
64499;SHT31;51087;55.718;21.122;2022-12-16T08:20:39;-3.26;99.99
64499;SHT31;51087;55.718;21.122;2022-12-16T08:23:23;-3.23;99.99
64499;SHT31;51087;55.718;21.122;2022-12-16T08:26:07;-3.24;99.99
64499;SHT31;51087;55.718;21.122;2022-12-16T08:28:51;-3.29;99.99
64499;SHT31;51087;55.718;21.122;2022-12-16T08:31:35;-3.32;99.99
64499;SHT31;51087;55.718;21.122;2022-12-16T08:34:18;-3.32;99.99
64499;SHT31;51087;55.718;21.122;2022-12-16T08:37:03;-3.33;99.99
64499;SHT31;51087;55.718;21.122;2022-12-16T08:39:47;-3.32;99.99
64499;SHT31;51087;55.718;21.122;2022-12-16T08:42:31;-3.29;99.99
64499;SHT31;51087;55.718;21.122;2022-12-16T08:45:15;-3.24;99.99
64499;SHT31;51087;55.718;21.122;2022-12-16T08:47:59;-3.20;99.99
64499;SHT31;51087;55.718;21.122;2022-12-16T08:50:43;-3.20;99.99
64499;SHT31;51087;55.718;21.122;2022-12-16T08:53:27;-3.13;99.99
64499;SHT31;51087;55.718;21.122;2022-12-16T08:56:11;-3.13;99.99
64499;SHT31;51087;55.718;21.122;2022-12-16T08:58:55;-3.10;99.99
64499;SHT31;51087;55.718;21.122;2022-12-16T09:01:39;-3.09;99.99
64499;SHT31;51087;55.718;21.122;2022-12-16T09:04:23;-3.09;99.99
64499;SHT31;51087;55.718;21.122;2022-12-16T09:07:07;-3.07;99.99
64499;SHT31;51087;55.718;21.122;2022-12-16T09:09:51;-3.06;99.99
64499;SHT31;51087;55.718;21.122;2022-12-16T09:12:34;-3.10;99.99
64499;SHT31;51087;55.718;21.122;2022-12-16T09:15:18;-3.13;99.99
64499;SHT31;51087;55.718;21.122;2022-12-16T09:18:03;-3.13;99.99
64499;SHT31;51087;55.718;21.122;2022-12-16T09:20:46;-3.16;99.99
64499;SHT31;51087;55.718;21.122;2022-12-16T09:23:30;-3.14;99.99
64499;SHT31;51087;55.718;21.122;2022-12-16T09:26:14;-3.13;99.99
64499;SHT31;51087;55.718;21.122;2022-12-16T09:29:15;-3.12;99.99
64499;SHT31;51087;55.718;21.122;2022-12-16T09:31:59;-3.17;99.99
64499;SHT31;51087;55.718;21.122;2022-12-16T09:34:42;-3.23;99.99
64499;SHT31;51087;55.718;21.122;2022-12-16T09:37:45;-3.20;99.99
64499;SHT31;51087;55.718;21.122;2022-12-16T09:40:29;-3.19;99.99
64499;SHT31;51087;55.718;21.122;2022-12-16T09:49:46;-3.09;99.99
64499;SHT31;51087;55.718;21.122;2022-12-16T09:52:44;-3.07;99.99
64499;SHT31;51087;55.718;21.122;2022-12-16T09:55:40;-3.09;99.99
64499;SHT31;51087;55.718;21.122;2022-12-16T09:58:28;-3.10;99.99
64499;SHT31;51087;55.718;21.122;2022-12-16T10:01:13;-3.13;99.99
64499;SHT31;51087;55.718;21.122;2022-12-16T10:03:58;-3.13;99.99
64499;SHT31;51087;55.718;21.122;2022-12-16T10:06:47;-3.16;99.99
64499;SHT31;51087;55.718;21.122;2022-12-16T10:27:59;-3.21;99.99
64499;SHT31;51087;55.718;21.122;2022-12-16T10:30:45;-3.21;99.99
64499;SHT31;51087;55.718;21.122;2022-12-16T10:33:29;-3.21;99.99
64499;SHT31;51087;55.718;21.122;2022-12-16T10:36:17;-3.17;99.99
64499;SHT31;51087;55.718;21.122;2022-12-16T10:39:18;-3.21;99.99
64499;SHT31;51087;55.718;21.122;2022-12-16T10:42:06;-3.21;99.99
64499;SHT31;51087;55.718;21.122;2022-12-16T10:44:59;-3.19;99.99
64499;SHT31;51087;55.718;21.122;2022-12-16T10:47:44;-3.19;99.99
64499;SHT31;51087;55.718;21.122;2022-12-16T10:50:28;-3.19;99.99
64499;SHT31;51087;55.718;21.122;2022-12-16T10:53:13;-3.19;99.99
64499;SHT31;51087;55.718;21.122;2022-12-16T10:59:05;-3.17;99.99
64499;SHT31;51087;55.718;21.122;2022-12-16T11:02:18;-3.16;99.99
64499;SHT31;51087;55.718;21.122;2022-12-16T11:05:22;-3.20;99.99
64499;SHT31;51087;55.718;21.122;2022-12-16T11:08:33;-3.19;99.99
64499;SHT31;51087;55.718;21.122;2022-12-16T11:11:23;-3.21;99.99
64499;SHT31;51087;55.718;21.122;2022-12-16T11:17:21;-3.27;99.99
64499;SHT31;51087;55.718;21.122;2022-12-16T11:23:05;-3.30;99.99
64499;SHT31;51087;55.718;21.122;2022-12-16T11:26:06;-3.26;99.99
64499;SHT31;51087;55.718;21.122;2022-12-16T11:29:14;-3.23;99.99
64499;SHT31;51087;55.718;21.122;2022-12-16T11:35:02;-3.20;99.99
64499;SHT31;51087;55.718;21.122;2022-12-16T11:37:48;-3.19;99.99
64499;SHT31;51087;55.718;21.122;2022-12-16T11:40:34;-3.16;99.99
64499;SHT31;51087;55.718;21.122;2022-12-16T11:43:20;-3.09;99.99
64499;SHT31;51087;55.718;21.122;2022-12-16T11:46:10;-3.12;99.99
64499;SHT31;51087;55.718;21.122;2022-12-16T11:49:00;-3.05;99.99
64499;SHT31;51087;55.718;21.122;2022-12-16T11:51:53;-3.05;99.99
64499;SHT31;51087;55.718;21.122;2022-12-16T11:54:49;-3.03;99.99
64499;SHT31;51087;55.718;21.122;2022-12-16T11:58:01;-3.09;99.99
64499;SHT31;51087;55.718;21.122;2022-12-16T12:01:09;-3.13;99.99
64499;SHT31;51087;55.718;21.122;2022-12-16T12:03:54;-3.16;99.99
64499;SHT31;51087;55.718;21.122;2022-12-16T12:09:31;-3.21;99.99
64499;SHT31;51087;55.718;21.122;2022-12-16T12:12:39;-3.26;99.99
64499;SHT31;51087;55.718;21.122;2022-12-16T12:18:57;-3.36;99.99
64499;SHT31;51087;55.718;21.122;2022-12-16T12:22:00;-3.40;99.99
64499;SHT31;51087;55.718;21.122;2022-12-16T12:24:52;-3.47;99.99
64499;SHT31;51087;55.718;21.122;2022-12-16T12:49:18;-3.67;99.99
64499;SHT31;51087;55.718;21.122;2022-12-16T12:55:01;-3.68;99.99
64499;SHT31;51087;55.718;21.122;2022-12-16T12:57:48;-3.75;99.99
64499;SHT31;51087;55.718;21.122;2022-12-16T13:00:35;-3.77;99.99
64499;SHT31;51087;55.718;21.122;2022-12-16T13:03:41;-3.78;99.99
64499;SHT31;51087;55.718;21.122;2022-12-16T13:06:26;-3.81;99.99
64499;SHT31;51087;55.718;21.122;2022-12-16T13:09:30;-3.85;99.99
64499;SHT31;51087;55.718;21.122;2022-12-16T13:20:56;-3.89;99.99
64499;SHT31;51087;55.718;21.122;2022-12-16T13:23:42;-3.92;99.99
64499;SHT31;51087;55.718;21.122;2022-12-16T13:26:29;-3.92;99.99
64499;SHT31;51087;55.718;21.122;2022-12-16T13:29:29;-3.89;99.99
64499;SHT31;51087;55.718;21.122;2022-12-16T13:32:18;-3.96;99.99
64499;SHT31;51087;55.718;21.122;2022-12-16T13:38:04;-4.00;99.99
64499;SHT31;51087;55.718;21.122;2022-12-16T13:41:04;-4.00;99.99
64499;SHT31;51087;55.718;21.122;2022-12-16T13:52:50;-4.05;99.99
64499;SHT31;51087;55.718;21.122;2022-12-16T13:55:56;-4.09;99.99
64499;SHT31;51087;55.718;21.122;2022-12-16T13:58:49;-4.09;99.99
64499;SHT31;51087;55.718;21.122;2022-12-16T14:01:37;-4.11;99.99
64499;SHT31;51087;55.718;21.122;2022-12-16T14:04:34;-4.13;99.99
64499;SHT31;51087;55.718;21.122;2022-12-16T14:07:24;-4.13;99.99
64499;SHT31;51087;55.718;21.122;2022-12-16T14:25:20;-4.24;99.99
64499;SHT31;51087;55.718;21.122;2022-12-16T14:31:19;-4.23;99.99
64499;SHT31;51087;55.718;21.122;2022-12-16T14:34:04;-4.24;99.99
64499;SHT31;51087;55.718;21.122;2022-12-16T14:36:54;-4.24;99.99
64499;SHT31;51087;55.718;21.122;2022-12-16T14:39:38;-4.24;99.99
64499;SHT31;51087;55.718;21.122;2022-12-16T14:42:30;-4.28;99.99
64499;SHT31;51087;55.718;21.122;2022-12-16T14:51:26;-4.36;99.99
64499;SHT31;51087;55.718;21.122;2022-12-16T14:54:25;-4.38;99.99
64499;SHT31;51087;55.718;21.122;2022-12-16T14:57:38;-4.40;99.99
64499;SHT31;51087;55.718;21.122;2022-12-16T15:00:23;-4.40;99.99
64499;SHT31;51087;55.718;21.122;2022-12-16T15:06:05;-4.43;99.99
64499;SHT31;51087;55.718;21.122;2022-12-16T15:08:55;-4.47;99.99
64499;SHT31;51087;55.718;21.122;2022-12-16T15:11:41;-4.47;99.99
64499;SHT31;51087;55.718;21.122;2022-12-16T15:14:31;-4.50;99.99
64499;SHT31;51087;55.718;21.122;2022-12-16T15:17:32;-4.50;99.99
64499;SHT31;51087;55.718;21.122;2022-12-16T15:20:21;-4.53;99.99
64499;SHT31;51087;55.718;21.122;2022-12-16T15:23:41;-4.51;99.99
64499;SHT31;51087;55.718;21.122;2022-12-16T15:26:29;-4.53;99.99
64499;SHT31;51087;55.718;21.122;2022-12-16T15:29:36;-4.58;99.99
64499;SHT31;51087;55.718;21.122;2022-12-16T15:32:31;-4.55;99.99
64499;SHT31;51087;55.718;21.122;2022-12-16T15:35:26;-4.57;99.99
64499;SHT31;51087;55.718;21.122;2022-12-16T15:41:04;-4.58;99.99
64499;SHT31;51087;55.718;21.122;2022-12-16T15:43:48;-4.60;99.99
64499;SHT31;51087;55.718;21.122;2022-12-16T15:46:35;-4.61;99.99
64499;SHT31;51087;55.718;21.122;2022-12-16T15:49:46;-4.60;99.99
64499;SHT31;51087;55.718;21.122;2022-12-16T15:52:35;-4.60;99.99
64499;SHT31;51087;55.718;21.122;2022-12-16T15:58:35;-4.61;99.99
64499;SHT31;51087;55.718;21.122;2022-12-16T16:01:26;-4.64;99.99
64499;SHT31;51087;55.718;21.122;2022-12-16T16:04:21;-4.66;99.99
64499;SHT31;51087;55.718;21.122;2022-12-16T16:07:18;-4.66;99.99
64499;SHT31;51087;55.718;21.122;2022-12-16T16:10:23;-4.69;99.99
64499;SHT31;51087;55.718;21.122;2022-12-16T16:13:08;-4.71;99.99
64499;SHT31;51087;55.718;21.122;2022-12-16T16:15:53;-4.72;99.99
64499;SHT31;51087;55.718;21.122;2022-12-16T16:18:38;-4.74;99.99
64499;SHT31;51087;55.718;21.122;2022-12-16T16:21:22;-4.79;99.99
64499;SHT31;51087;55.718;21.122;2022-12-16T16:24:06;-4.79;99.99
64499;SHT31;51087;55.718;21.122;2022-12-16T16:26:52;-4.83;99.99
64499;SHT31;51087;55.718;21.122;2022-12-16T16:29:36;-4.86;99.99
64499;SHT31;51087;55.718;21.122;2022-12-16T16:32:20;-4.88;99.99
64499;SHT31;51087;55.718;21.122;2022-12-16T16:35:04;-4.86;99.99
64499;SHT31;51087;55.718;21.122;2022-12-16T16:37:48;-4.88;99.99
64499;SHT31;51087;55.718;21.122;2022-12-16T16:40:36;-4.89;99.99
64499;SHT31;51087;55.718;21.122;2022-12-16T16:43:21;-4.91;99.99
64499;SHT31;51087;55.718;21.122;2022-12-16T16:49:37;-4.97;99.99
64499;SHT31;51087;55.718;21.122;2022-12-16T16:52:23;-5.00;99.99
64499;SHT31;51087;55.718;21.122;2022-12-16T16:57:59;-5.03;99.99
64499;SHT31;51087;55.718;21.122;2022-12-16T17:00:44;-5.02;99.99
64499;SHT31;51087;55.718;21.122;2022-12-16T17:03:28;-5.06;99.99
64499;SHT31;51087;55.718;21.122;2022-12-16T17:06:12;-5.10;99.99
64499;SHT31;51087;55.718;21.122;2022-12-16T17:08:56;-5.10;99.99
64499;SHT31;51087;55.718;21.122;2022-12-16T17:11:39;-5.09;99.99
64499;SHT31;51087;55.718;21.122;2022-12-16T17:14:24;-5.17;99.99
64499;SHT31;51087;55.718;21.122;2022-12-16T17:17:08;-5.17;99.99
64499;SHT31;51087;55.718;21.122;2022-12-16T17:19:53;-5.19;99.99
64499;SHT31;51087;55.718;21.122;2022-12-16T17:22:38;-5.23;99.99
64499;SHT31;51087;55.718;21.122;2022-12-16T17:32:10;-5.30;99.99
64499;SHT31;51087;55.718;21.122;2022-12-16T17:34:55;-5.34;99.99
64499;SHT31;51087;55.718;21.122;2022-12-16T17:37:39;-5.34;99.99
64499;SHT31;51087;55.718;21.122;2022-12-16T17:40:31;-5.34;99.99
64499;SHT31;51087;55.718;21.122;2022-12-16T17:46:41;-5.35;99.99
64499;SHT31;51087;55.718;21.122;2022-12-16T17:49:25;-5.37;99.99
64499;SHT31;51087;55.718;21.122;2022-12-16T17:52:09;-5.37;99.99
64499;SHT31;51087;55.718;21.122;2022-12-16T17:54:53;-5.42;99.99
64499;SHT31;51087;55.718;21.122;2022-12-16T17:57:37;-5.44;99.99
64499;SHT31;51087;55.718;21.122;2022-12-16T18:00:21;-5.46;99.99
64499;SHT31;51087;55.718;21.122;2022-12-16T18:03:05;-5.46;99.99
64499;SHT31;51087;55.718;21.122;2022-12-16T18:05:55;-5.47;99.99
64499;SHT31;51087;55.718;21.122;2022-12-16T18:08:39;-5.51;99.99
64499;SHT31;51087;55.718;21.122;2022-12-16T18:11:23;-5.50;99.99
64499;SHT31;51087;55.718;21.122;2022-12-16T18:14:07;-5.48;99.99
64499;SHT31;51087;55.718;21.122;2022-12-16T18:16:51;-5.48;99.99
64499;SHT31;51087;55.718;21.122;2022-12-16T18:19:36;-5.48;99.99
64499;SHT31;51087;55.718;21.122;2022-12-16T18:22:20;-5.48;99.99
64499;SHT31;51087;55.718;21.122;2022-12-16T18:25:04;-5.54;99.99
64499;SHT31;51087;55.718;21.122;2022-12-16T18:27:48;-5.57;99.99
64499;SHT31;51087;55.718;21.122;2022-12-16T18:30:32;-5.55;99.99
64499;SHT31;51087;55.718;21.122;2022-12-16T18:33:16;-5.55;99.99
64499;SHT31;51087;55.718;21.122;2022-12-16T18:36:00;-5.57;99.99
64499;SHT31;51087;55.718;21.122;2022-12-16T18:38:44;-5.58;99.99
64499;SHT31;51087;55.718;21.122;2022-12-16T18:41:28;-5.58;99.99
64499;SHT31;51087;55.718;21.122;2022-12-16T18:44:13;-5.57;99.99
64499;SHT31;51087;55.718;21.122;2022-12-16T18:46:57;-5.55;99.99
64499;SHT31;51087;55.718;21.122;2022-12-16T18:49:41;-5.59;99.99
64499;SHT31;51087;55.718;21.122;2022-12-16T18:52:25;-5.62;99.99
64499;SHT31;51087;55.718;21.122;2022-12-16T18:55:09;-5.64;99.99
64499;SHT31;51087;55.718;21.122;2022-12-16T18:57:54;-5.64;99.99
64499;SHT31;51087;55.718;21.122;2022-12-16T19:00:38;-5.68;99.99
64499;SHT31;51087;55.718;21.122;2022-12-16T19:03:21;-5.68;99.99
64499;SHT31;51087;55.718;21.122;2022-12-16T19:06:06;-5.69;99.99
64499;SHT31;51087;55.718;21.122;2022-12-16T19:08:53;-5.69;99.99
64499;SHT31;51087;55.718;21.122;2022-12-16T19:11:37;-5.71;99.99
64499;SHT31;51087;55.718;21.122;2022-12-16T19:14:21;-5.69;99.99
64499;SHT31;51087;55.718;21.122;2022-12-16T19:17:05;-5.69;99.99
64499;SHT31;51087;55.718;21.122;2022-12-16T19:19:50;-5.72;99.99
64499;SHT31;51087;55.718;21.122;2022-12-16T19:22:34;-5.71;99.99
64499;SHT31;51087;55.718;21.122;2022-12-16T19:25:18;-5.72;99.99
64499;SHT31;51087;55.718;21.122;2022-12-16T19:28:01;-5.72;99.99
64499;SHT31;51087;55.718;21.122;2022-12-16T19:30:55;-5.71;99.99
64499;SHT31;51087;55.718;21.122;2022-12-16T19:33:39;-5.74;99.99
64499;SHT31;51087;55.718;21.122;2022-12-16T19:36:23;-5.74;99.99
64499;SHT31;51087;55.718;21.122;2022-12-16T19:39:07;-5.72;99.99
64499;SHT31;51087;55.718;21.122;2022-12-16T19:41:51;-5.75;99.99
64499;SHT31;51087;55.718;21.122;2022-12-16T19:44:36;-5.74;99.99